Aviation Digital Data Service (ADDS)

Output produced by METARs form (1835 UTC 22 May 2019)
found at http://aviationweather.gov/metar/data/
 
METAR text: ETNT 221820Z 30005KT 9999 FEW025 13/08 Q1018 BLU+
Conditions at: ETNT (WITTMUNDHAVEN(GA, DE) observed 1820 UTC 22 May 2019
Temperature: 13.0°C (55°F)
Dewpoint: 8.0°C (46°F) [RH = 72%]
Pressure (altimeter): 30.06 inches Hg (1018.0 mb)
Winds: from the WNW (300 degrees) at 6 MPH (5 knots; 2.6 m/s)
Visibility: 6 or more miles (10+ km)
Ceiling: at least 12,000 feet AGL
Clouds: few clouds at 2500 feet AGL
Weather: no significant weather observed at this time

Forecast for: ETNT (WITTMUNDHAVEN(GA, DE)
Text: TAF ETNT 221600Z 2217/2302 29012G22KT 9999 NSW SCT025 BY ETGL
Forecast period: 1700 UTC 22 May 2019 to 0200 UTC 23 May 2019
Forecast type: FROM: standard forecast or significant change
Winds: from the WNW (290 degrees) at 14 MPH (12 knots; 6.2 m/s)
gusting to 25 MPH (22 knots; 11.3 m/s)
Visibility: 6 or more miles 10+ km)
Ceiling: at least 12,000 feet AGL
Clouds: scattered clouds at 2500 feet AGL
Weather: NSW  (no significant weather)